This is the latest recevied weather packets stored in our database for station/object UHMA. If no packets are shown the sender has not sent any weather packets the latest 10 day(s).
| Time | Temp. | Humidity | Pressure | Rain* | Wind** | Luminosity | Snow |
|---|---|---|---|---|---|---|---|
| 1777248830 | -5° C | 85% | 1006 hPa | - | - | - | - |
| 1777248227 | -4.44° C | 79% | 1007 hPa | - | - | - | - |
| 1777248008 | -4.44° C | 79% | 1007 hPa | - | - | - | - |
| 1777247628 | -5° C | 79% | 1007 hPa | - | - | - | - |
| 1777247032 | -5° C | 85% | 1007 hPa | - | - | - | - |
| 1777246429 | -4.44° C | 79% | 1006 hPa | - | - | - | - |
| 1777246209 | -4.44° C | 79% | 1006 hPa | - | - | - | - |
| 1777245828 | -3.33° C | 73% | 1007 hPa | - | - | - | - |
| 1777245225 | -5° C | 85% | 1007 hPa | - | - | - | - |
| 1777244628 | - | - | 1006 hPa | - | - | - | - |
| 1777244027 | - | - | 1006 hPa | - | - | - | - |
| 1777243427 | -5° C | 85% | 1008 hPa | - | - | - | - |
| 1777242826 | -5° C | 85% | 1007 hPa | - | - | - | - |
| 1777242609 | -5° C | 85% | 1007 hPa | - | - | - | - |
| 1777242227 | -5° C | 85% | 1007 hPa | - | - | - | - |
| 1777241028 | -5° C | 73% | 1008 hPa | - | - | - | - |
| 1777240809 | -5° C | 73% | 1008 hPa | - | - | - | - |
| 1777240427 | -5° C | 73% | 1008 hPa | - | - | - | - |
| 1777239827 | -3.33° C | 68% | 1008 hPa | - | - | - | - |
| 1777239226 | -2.22° C | 68% | 1008 hPa | - | - | - | - |
| 1777239008 | -2.22° C | 68% | 1008 hPa | - | - | - | - |
| 1777238626 | -4.44° C | 79% | 1008 hPa | - | - | - | - |
| 1777238026 | -4.44° C | 79% | 1008 hPa | - | - | - | - |
| 1777237429 | -4.44° C | 79% | 1008 hPa | - | - | - | - |
| 1777237209 | -4.44° C | 79% | 1008 hPa | - | - | - | - |
* Rain since midnight (hover to see other rain measurements)
** Current wind speed in m/s (hover to see current wind gust speed)